Brown Field Municipal Airport
KSDM : now visible

Airfield :











YOU CAN JOIN US ON...

 
LOGIN :

Register | Disclaimer

   EN    FR    IT 

 









Legend :    VFR   Marginal VFR   IFR   Intensive IFR   Very Intensive IFR
Visi :
Ceiling :
>= 8 km
>= 3000ft
5 to 8 km
1000 to 3000 ft
1500m to 5 km
500 to 1000 ft
800 to 1500m
200 to 500 ft
< 800m
< 200 ft
Symbols :   Thunderstorms  Fog  Heavy snow  Heavy precipitations  Wind > 20 kt







- Airport Elevation : 526 ft


KSDM - Brown Field Municipal

CURRENT METAR :
  • 211053Z AUTO 00000KT 10SM FEW019 SCT030 BKN038 11/09 A3012 RMK AO2 SLP198 T01110094

EXPIRED METARs :
  • 210953Z AUTO 00000KT 10SM FEW016 FEW028 BKN038 12/09 A3012 RMK AO2 SLP198 T01170094
  • 210853Z AUTO 31003KT 10SM FEW015 SCT022 12/09 A3012 RMK AO2 SLP197 T01220094 53004

TAF N/A
KZLA FIR / North America



MET'MAP, your aeronautical weather chart ! - Copyright ORBIFLY December 2007 - Disclaimer

ORBIFLY MET'MAP TEAM :

Programming & Development : Alexandra Zaïnal
Concept & Development : Baudouin d'Aumeries
Co-Development & Prog : Marc-Olivier Méhu
Technical & hardware support : Manuel Goepfert

Contact : metmap@orbifly.com




SOURCES & CREDITS :

   NOAA       Earth
Advisory